Beverly Hills, CA (90209)

11:11 PM PDT on March 29, 2015 (GMT -0700)
West Hollywood | | Change Station
CLOSE
Current Station
Personal Weather Station
Location: West Hollywood, CA
Elevation: 217 ft
Nearby Weather Stations

Elev 217 ft 34.09 °N, 118.38 °W | Updated 6 minutes ago

Mostly Cloudy
Mostly Cloudy
60.6 °F
Feels Like 60.6 °F
N
0.0
Wind Variable Wind from South
Gusts 2.0 mph

Today
High -- | Low -- °F
--% Chance of Precip.
Yesterday
High -- | Low -- °F
Precip. -- in
6:45 AM 7:12 PM
Waxing Gibbous, 77% visible
Pressure 30.03 in
Visibility 9.0 miles
Clouds Overcast 700 ft
Dew Point 57 °F
Humidity 88%
Rainfall 0.12 in
Snow Depth Not available.
UV 0 out of 12
Pollen 8.80 out of 12
Air Quality Not available.
Flu Activity Not available.
METAR KSMO 300551Z AUTO 22004KT 9SM OVC007 17/14 A3003 RMK AO2 SLP168 T01670144 10206 20167 51011 $

More Conditions Fewer Conditions

Pressure 30.03 in
Visibility 9.0 miles
Clouds Overcast 700 ft
Dew Point 57 °F
Humidity 88%
Rainfall 0.12 in
Snow Depth Not available.
UV 0 out of 12
Pollen 8.80 out of 12
Air Quality Not available.
Flu Activity Not available.
METAR KSMO 300551Z AUTO 22004KT 9SM OVC007 17/14 A3003 RMK AO2 SLP168 T01670144 10206 20167 51011 $

More Conditions Fewer Conditions

10-Day Weather Forecast

Almanac

Astronomy

Mar. 29, 2015 Rise Set
Actual Time
Civil Twilight
Nautical Twilight
Astronomical Twilight
Moon
Length of Visible Light
Length of Day
Tomorrow will be .
, % of the Moon is Illuminated

Today's Extremes

State Highs State Lows

Community

WunderPhotos

Upload Photos

1,809,437 photos uploaded!

WunderBlogs® & News

Nearby

Air Quality

  Air Quality AQ Index Pollutant
Not available.

Snow Depth

Station Depth Elevation

Earthquake Activity

City Distance Mag. Time & Date
Minimum magnitude displayed is 2.5.

Coastal Water Temperatures

Place Temperature

Stations

Nearby Weather Stations

Station Location Temp. Windchill Dew Point Humidity Wind Precip. Elev Updated Type
                   
Beach Hazard Statement
Statement as of 9:59 PM PDT on March 29, 2015

... Beach hazards statement remains in effect through Monday
evening...

* hazards and timing... surf will range from 3 to 5 feet with
occasional sets to 6 feet. Frequent strong rip currents and
strong long-shore currents are likely.

* Tides... the lower high tide is expected to occur in the
evening with the higher high tide occurring in the early
morning.

* Impacts... elevated surf will bring strong rip currents and long-shore
currents to area beaches along with a risk of sneaker waves.
Long period swell also causes more powerful surf and a potential
for minor beach erosion during times of high tide.

Precautionary/preparedness actions...

A beach hazards statement is issued when threats to beach and
surf zone safety are expected or occurring. Caution should be
used when in or near the water. Stay near occupied lifeguard
towers and never swim alone. If caught in a rip current... swim
parallel to the shore.